sensor_id;sensor_type;location;lat;lon;timestamp;temperature;humidity
13093;DHT22;6612;49.568;11.000;2022-09-30T00:02:18;10.70;65.00
13093;DHT22;6612;49.568;11.000;2022-09-30T00:04:45;10.70;65.10
13093;DHT22;6612;49.568;11.000;2022-09-30T00:07:12;10.70;65.10
13093;DHT22;6612;49.568;11.000;2022-09-30T00:09:38;10.60;65.10
13093;DHT22;6612;49.568;11.000;2022-09-30T00:12:06;10.50;65.20
13093;DHT22;6612;49.568;11.000;2022-09-30T00:14:32;10.60;65.30
13093;DHT22;6612;49.568;11.000;2022-09-30T00:17:01;10.60;65.40
13093;DHT22;6612;49.568;11.000;2022-09-30T00:19:28;10.60;65.40
13093;DHT22;6612;49.568;11.000;2022-09-30T00:21:54;10.60;65.40
13093;DHT22;6612;49.568;11.000;2022-09-30T00:24:21;10.60;65.30
13093;DHT22;6612;49.568;11.000;2022-09-30T00:26:48;10.60;65.30
13093;DHT22;6612;49.568;11.000;2022-09-30T00:29:15;10.60;65.10
13093;DHT22;6612;49.568;11.000;2022-09-30T00:31:42;10.50;64.90
13093;DHT22;6612;49.568;11.000;2022-09-30T00:34:10;10.50;64.90
13093;DHT22;6612;49.568;11.000;2022-09-30T00:36:40;10.50;64.80
13093;DHT22;6612;49.568;11.000;2022-09-30T00:39:11;10.50;64.70
13093;DHT22;6612;49.568;11.000;2022-09-30T00:41:38;10.40;64.50
13093;DHT22;6612;49.568;11.000;2022-09-30T00:44:43;10.40;64.40
13093;DHT22;6612;49.568;11.000;2022-09-30T00:47:32;10.30;64.20
13093;DHT22;6612;49.568;11.000;2022-09-30T00:50:09;10.20;64.00
13093;DHT22;6612;49.568;11.000;2022-09-30T00:52:37;10.20;64.00
13093;DHT22;6612;49.568;11.000;2022-09-30T00:55:08;10.20;63.90
13093;DHT22;6612;49.568;11.000;2022-09-30T00:57:36;10.10;63.80
13093;DHT22;6612;49.568;11.000;2022-09-30T01:00:04;10.10;63.90
13093;DHT22;6612;49.568;11.000;2022-09-30T01:02:32;10.00;64.00
13093;DHT22;6612;49.568;11.000;2022-09-30T01:05:00;9.90;65.00
13093;DHT22;6612;49.568;11.000;2022-09-30T01:07:28;9.80;65.10
13093;DHT22;6612;49.568;11.000;2022-09-30T01:09:56;9.80;65.20
13093;DHT22;6612;49.568;11.000;2022-09-30T01:12:23;9.80;65.30
13093;DHT22;6612;49.568;11.000;2022-09-30T01:14:54;9.80;65.40
13093;DHT22;6612;49.568;11.000;2022-09-30T01:17:31;9.80;65.40
13093;DHT22;6612;49.568;11.000;2022-09-30T01:20:35;9.70;65.30
13093;DHT22;6612;49.568;11.000;2022-09-30T01:23:28;9.70;64.50
13093;DHT22;6612;49.568;11.000;2022-09-30T01:26:20;9.60;65.20
13093;DHT22;6612;49.568;11.000;2022-09-30T01:29:25;9.60;65.20
13093;DHT22;6612;49.568;11.000;2022-09-30T01:32:03;9.50;65.10
13093;DHT22;6612;49.568;11.000;2022-09-30T01:34:38;9.50;65.20
13093;DHT22;6612;49.568;11.000;2022-09-30T01:37:12;9.50;65.40
13093;DHT22;6612;49.568;11.000;2022-09-30T01:39:50;9.50;65.50
13093;DHT22;6612;49.568;11.000;2022-09-30T01:42:24;9.50;66.80
13093;DHT22;6612;49.568;11.000;2022-09-30T01:44:57;9.40;65.80
13093;DHT22;6612;49.568;11.000;2022-09-30T01:47:32;9.40;65.80
13093;DHT22;6612;49.568;11.000;2022-09-30T01:50:04;9.30;66.60
13093;DHT22;6612;49.568;11.000;2022-09-30T01:52:37;9.40;66.00
13093;DHT22;6612;49.568;11.000;2022-09-30T01:55:10;9.30;66.10
13093;DHT22;6612;49.568;11.000;2022-09-30T01:57:43;9.30;66.30
13093;DHT22;6612;49.568;11.000;2022-09-30T02:00:12;9.30;66.50
13093;DHT22;6612;49.568;11.000;2022-09-30T02:02:44;9.30;66.70
13093;DHT22;6612;49.568;11.000;2022-09-30T02:05:16;9.30;67.00
13093;DHT22;6612;49.568;11.000;2022-09-30T02:07:48;9.30;67.10
13093;DHT22;6612;49.568;11.000;2022-09-30T02:10:18;9.30;67.20
13093;DHT22;6612;49.568;11.000;2022-09-30T02:12:51;9.40;66.60
13093;DHT22;6612;49.568;11.000;2022-09-30T02:15:21;9.40;67.30
13093;DHT22;6612;49.568;11.000;2022-09-30T02:17:55;9.50;67.40
13093;DHT22;6612;49.568;11.000;2022-09-30T02:20:25;9.40;67.40
13093;DHT22;6612;49.568;11.000;2022-09-30T02:23:01;9.50;67.10
13093;DHT22;6612;49.568;11.000;2022-09-30T02:25:32;9.50;67.70
13093;DHT22;6612;49.568;11.000;2022-09-30T02:28:05;9.50;67.80
13093;DHT22;6612;49.568;11.000;2022-09-30T02:30:34;9.50;67.90
13093;DHT22;6612;49.568;11.000;2022-09-30T02:33:05;9.70;67.70
13093;DHT22;6612;49.568;11.000;2022-09-30T02:35:36;9.60;68.30
13093;DHT22;6612;49.568;11.000;2022-09-30T02:38:08;9.60;68.40
13093;DHT22;6612;49.568;11.000;2022-09-30T02:40:38;9.70;68.60
13093;DHT22;6612;49.568;11.000;2022-09-30T02:43:08;9.70;68.70
13093;DHT22;6612;49.568;11.000;2022-09-30T02:45:42;9.70;68.70
13093;DHT22;6612;49.568;11.000;2022-09-30T02:48:22;9.80;68.80
13093;DHT22;6612;49.568;11.000;2022-09-30T02:50:53;9.80;68.80
13093;DHT22;6612;49.568;11.000;2022-09-30T02:53:26;9.90;68.90
13093;DHT22;6612;49.568;11.000;2022-09-30T02:56:17;9.90;69.00
13093;DHT22;6612;49.568;11.000;2022-09-30T02:58:46;9.90;69.00
13093;DHT22;6612;49.568;11.000;2022-09-30T03:01:15;10.00;68.00
13093;DHT22;6612;49.568;11.000;2022-09-30T03:03:46;10.00;67.90
13093;DHT22;6612;49.568;11.000;2022-09-30T03:06:15;10.10;67.90
13093;DHT22;6612;49.568;11.000;2022-09-30T03:08:43;10.10;67.90
13093;DHT22;6612;49.568;11.000;2022-09-30T03:11:14;10.20;67.80
13093;DHT22;6612;49.568;11.000;2022-09-30T03:17:15;10.20;67.50
13093;DHT22;6612;49.568;11.000;2022-09-30T03:19:57;10.20;67.30
13093;DHT22;6612;49.568;11.000;2022-09-30T03:22:41;10.20;67.20
13093;DHT22;6612;49.568;11.000;2022-09-30T03:25:17;10.20;67.10
13093;DHT22;6612;49.568;11.000;2022-09-30T03:27:53;10.20;67.10
13093;DHT22;6612;49.568;11.000;2022-09-30T03:30:25;10.10;67.00
13093;DHT22;6612;49.568;11.000;2022-09-30T03:33:05;10.20;67.80
13093;DHT22;6612;49.568;11.000;2022-09-30T03:35:42;10.10;67.10
13093;DHT22;6612;49.568;11.000;2022-09-30T03:38:14;10.20;67.30
13093;DHT22;6612;49.568;11.000;2022-09-30T03:40:48;10.20;67.40
13093;DHT22;6612;49.568;11.000;2022-09-30T03:43:20;10.20;67.40
13093;DHT22;6612;49.568;11.000;2022-09-30T03:45:53;10.20;67.40
13093;DHT22;6612;49.568;11.000;2022-09-30T03:48:22;10.20;67.40
13093;DHT22;6612;49.568;11.000;2022-09-30T03:50:52;10.20;67.40
13093;DHT22;6612;49.568;11.000;2022-09-30T03:53:19;10.20;67.50
13093;DHT22;6612;49.568;11.000;2022-09-30T03:55:48;10.20;68.20
13093;DHT22;6612;49.568;11.000;2022-09-30T03:58:17;10.20;67.40
13093;DHT22;6612;49.568;11.000;2022-09-30T04:00:47;10.20;67.50
13093;DHT22;6612;49.568;11.000;2022-09-30T04:03:15;10.20;67.50
13093;DHT22;6612;49.568;11.000;2022-09-30T04:05:43;10.20;67.50
13093;DHT22;6612;49.568;11.000;2022-09-30T04:08:11;10.20;67.40
13093;DHT22;6612;49.568;11.000;2022-09-30T04:10:39;10.20;67.90
13093;DHT22;6612;49.568;11.000;2022-09-30T04:13:06;10.20;66.50
13093;DHT22;6612;49.568;11.000;2022-09-30T04:15:34;10.20;67.00
13093;DHT22;6612;49.568;11.000;2022-09-30T04:18:01;10.20;66.90
13093;DHT22;6612;49.568;11.000;2022-09-30T04:20:28;10.20;66.80
13093;DHT22;6612;49.568;11.000;2022-09-30T04:22:56;10.30;67.70
13093;DHT22;6612;49.568;11.000;2022-09-30T04:25:25;10.00;66.60
13093;DHT22;6612;49.568;11.000;2022-09-30T04:27:53;10.10;66.00
13093;DHT22;6612;49.568;11.000;2022-09-30T04:30:20;10.00;66.60
13093;DHT22;6612;49.568;11.000;2022-09-30T04:32:47;10.10;66.70
13093;DHT22;6612;49.568;11.000;2022-09-30T04:35:14;10.00;66.60
13093;DHT22;6612;49.568;11.000;2022-09-30T04:37:42;10.00;66.50
13093;DHT22;6612;49.568;11.000;2022-09-30T04:40:10;9.90;67.50
13093;DHT22;6612;49.568;11.000;2022-09-30T04:42:39;10.00;66.50
13093;DHT22;6612;49.568;11.000;2022-09-30T04:45:09;9.90;67.50
13093;DHT22;6612;49.568;11.000;2022-09-30T04:47:36;9.80;67.50
13093;DHT22;6612;49.568;11.000;2022-09-30T04:50:04;9.80;67.70
13093;DHT22;6612;49.568;11.000;2022-09-30T04:52:31;9.80;67.90
13093;DHT22;6612;49.568;11.000;2022-09-30T04:54:59;9.80;68.20
13093;DHT22;6612;49.568;11.000;2022-09-30T04:57:26;9.80;68.40
13093;DHT22;6612;49.568;11.000;2022-09-30T04:59:54;9.80;68.80
13093;DHT22;6612;49.568;11.000;2022-09-30T05:02:21;9.80;69.00
13093;DHT22;6612;49.568;11.000;2022-09-30T05:04:48;9.80;69.10
13093;DHT22;6612;49.568;11.000;2022-09-30T05:07:15;9.80;69.30
13093;DHT22;6612;49.568;11.000;2022-09-30T05:09:42;9.80;69.30
13093;DHT22;6612;49.568;11.000;2022-09-30T05:12:09;9.80;69.40
13093;DHT22;6612;49.568;11.000;2022-09-30T05:14:37;9.90;69.50
13093;DHT22;6612;49.568;11.000;2022-09-30T05:17:05;9.90;69.50
13093;DHT22;6612;49.568;11.000;2022-09-30T05:19:33;9.90;69.40
13093;DHT22;6612;49.568;11.000;2022-09-30T05:22:00;9.90;69.30
13093;DHT22;6612;49.568;11.000;2022-09-30T05:24:27;9.90;69.40
13093;DHT22;6612;49.568;11.000;2022-09-30T05:26:55;9.90;69.40
13093;DHT22;6612;49.568;11.000;2022-09-30T05:29:22;10.00;68.50
13093;DHT22;6612;49.568;11.000;2022-09-30T05:31:49;10.00;68.60
13093;DHT22;6612;49.568;11.000;2022-09-30T05:34:17;10.00;68.70
13093;DHT22;6612;49.568;11.000;2022-09-30T05:36:46;10.00;68.80
13093;DHT22;6612;49.568;11.000;2022-09-30T05:39:13;10.10;69.60
13093;DHT22;6612;49.568;11.000;2022-09-30T05:41:40;10.10;68.70
13093;DHT22;6612;49.568;11.000;2022-09-30T05:44:08;10.00;68.50
13093;DHT22;6612;49.568;11.000;2022-09-30T05:46:35;10.10;68.60
13093;DHT22;6612;49.568;11.000;2022-09-30T05:49:03;10.20;68.80
13093;DHT22;6612;49.568;11.000;2022-09-30T05:51:31;10.10;68.70
13093;DHT22;6612;49.568;11.000;2022-09-30T05:53:58;10.20;68.70
13093;DHT22;6612;49.568;11.000;2022-09-30T05:56:25;10.20;68.80
13093;DHT22;6612;49.568;11.000;2022-09-30T05:58:52;10.20;69.00
13093;DHT22;6612;49.568;11.000;2022-09-30T06:01:19;10.20;69.00
13093;DHT22;6612;49.568;11.000;2022-09-30T06:03:46;10.30;69.30
13093;DHT22;6612;49.568;11.000;2022-09-30T06:06:14;10.30;69.30
13093;DHT22;6612;49.568;11.000;2022-09-30T06:08:45;10.40;69.30
13093;DHT22;6612;49.568;11.000;2022-09-30T06:11:13;10.40;68.90
13093;DHT22;6612;49.568;11.000;2022-09-30T06:13:42;10.40;68.80
13093;DHT22;6612;49.568;11.000;2022-09-30T06:16:10;10.50;68.80
13093;DHT22;6612;49.568;11.000;2022-09-30T06:18:38;10.50;68.90
13093;DHT22;6612;49.568;11.000;2022-09-30T06:21:07;10.50;69.00
13093;DHT22;6612;49.568;11.000;2022-09-30T06:23:35;10.50;68.90
13093;DHT22;6612;49.568;11.000;2022-09-30T06:26:06;10.50;68.50
13093;DHT22;6612;49.568;11.000;2022-09-30T06:28:34;10.50;68.10
13093;DHT22;6612;49.568;11.000;2022-09-30T06:31:01;10.50;68.10
13093;DHT22;6612;49.568;11.000;2022-09-30T06:33:29;10.60;68.30
13093;DHT22;6612;49.568;11.000;2022-09-30T06:35:56;10.60;68.50
13093;DHT22;6612;49.568;11.000;2022-09-30T06:38:24;10.60;68.60
13093;DHT22;6612;49.568;11.000;2022-09-30T06:40:53;10.60;68.20
13093;DHT22;6612;49.568;11.000;2022-09-30T06:43:22;10.60;68.00
13093;DHT22;6612;49.568;11.000;2022-09-30T06:45:49;10.60;67.90
13093;DHT22;6612;49.568;11.000;2022-09-30T06:48:17;10.60;68.10
13093;DHT22;6612;49.568;11.000;2022-09-30T06:50:44;10.60;68.40
13093;DHT22;6612;49.568;11.000;2022-09-30T06:53:12;10.60;68.60
13093;DHT22;6612;49.568;11.000;2022-09-30T06:55:39;10.70;68.80
13093;DHT22;6612;49.568;11.000;2022-09-30T06:58:14;10.70;68.80
13093;DHT22;6612;49.568;11.000;2022-09-30T07:00:43;10.80;69.00
13093;DHT22;6612;49.568;11.000;2022-09-30T07:03:23;10.80;70.10
13093;DHT22;6612;49.568;11.000;2022-09-30T07:05:55;10.90;68.90
13093;DHT22;6612;49.568;11.000;2022-09-30T07:08:23;10.90;68.80
13093;DHT22;6612;49.568;11.000;2022-09-30T07:10:54;11.00;68.80
13093;DHT22;6612;49.568;11.000;2022-09-30T07:13:21;11.00;68.70
13093;DHT22;6612;49.568;11.000;2022-09-30T07:15:50;11.00;68.50
13093;DHT22;6612;49.568;11.000;2022-09-30T07:18:19;11.10;68.30
13093;DHT22;6612;49.568;11.000;2022-09-30T07:20:49;11.10;68.20
13093;DHT22;6612;49.568;11.000;2022-09-30T07:23:17;11.10;68.10
13093;DHT22;6612;49.568;11.000;2022-09-30T07:25:51;11.10;68.10
13093;DHT22;6612;49.568;11.000;2022-09-30T07:28:21;11.20;67.90
13093;DHT22;6612;49.568;11.000;2022-09-30T07:30:53;11.20;67.90
13093;DHT22;6612;49.568;11.000;2022-09-30T07:33:22;11.20;67.80
13093;DHT22;6612;49.568;11.000;2022-09-30T07:35:50;11.20;67.90
13093;DHT22;6612;49.568;11.000;2022-09-30T07:38:19;11.20;68.10
13093;DHT22;6612;49.568;11.000;2022-09-30T07:40:54;11.30;68.10
13093;DHT22;6612;49.568;11.000;2022-09-30T07:43:21;11.30;68.10
13093;DHT22;6612;49.568;11.000;2022-09-30T07:45:49;11.40;68.90
13093;DHT22;6612;49.568;11.000;2022-09-30T07:48:20;11.40;69.00
13093;DHT22;6612;49.568;11.000;2022-09-30T07:51:08;11.50;69.00
13093;DHT22;6612;49.568;11.000;2022-09-30T07:53:35;11.60;69.30
13093;DHT22;6612;49.568;11.000;2022-09-30T07:56:03;11.70;69.60
13093;DHT22;6612;49.568;11.000;2022-09-30T07:58:31;11.80;69.90
13093;DHT22;6612;49.568;11.000;2022-09-30T08:00:58;11.90;70.30
13093;DHT22;6612;49.568;11.000;2022-09-30T08:03:27;12.00;70.60
13093;DHT22;6612;49.568;11.000;2022-09-30T08:05:54;12.20;70.50
13093;DHT22;6612;49.568;11.000;2022-09-30T08:08:21;12.30;70.00
13093;DHT22;6612;49.568;11.000;2022-09-30T08:10:48;12.30;69.30
13093;DHT22;6612;49.568;11.000;2022-09-30T08:13:15;12.40;69.00
13093;DHT22;6612;49.568;11.000;2022-09-30T08:15:44;12.50;69.00
13093;DHT22;6612;49.568;11.000;2022-09-30T08:18:12;12.50;69.20
13093;DHT22;6612;49.568;11.000;2022-09-30T08:20:40;12.60;69.40
13093;DHT22;6612;49.568;11.000;2022-09-30T08:23:07;12.80;67.90
13093;DHT22;6612;49.568;11.000;2022-09-30T08:25:34;12.80;69.30
13093;DHT22;6612;49.568;11.000;2022-09-30T08:28:01;12.90;69.20
13093;DHT22;6612;49.568;11.000;2022-09-30T08:30:29;12.90;69.00
13093;DHT22;6612;49.568;11.000;2022-09-30T08:32:57;13.20;69.80
13093;DHT22;6612;49.568;11.000;2022-09-30T08:35:24;13.10;68.80
13093;DHT22;6612;49.568;11.000;2022-09-30T08:37:52;13.20;68.80
13093;DHT22;6612;49.568;11.000;2022-09-30T08:40:23;13.20;68.90
13093;DHT22;6612;49.568;11.000;2022-09-30T08:43:02;13.30;69.90
13093;DHT22;6612;49.568;11.000;2022-09-30T08:45:38;13.40;69.00
13093;DHT22;6612;49.568;11.000;2022-09-30T08:48:24;13.50;68.90
13093;DHT22;6612;49.568;11.000;2022-09-30T08:51:03;13.60;68.10
13093;DHT22;6612;49.568;11.000;2022-09-30T08:53:40;13.70;68.30
13093;DHT22;6612;49.568;11.000;2022-09-30T08:56:16;13.80;68.70
13093;DHT22;6612;49.568;11.000;2022-09-30T08:58:48;13.80;69.10
13093;DHT22;6612;49.568;11.000;2022-09-30T09:01:22;14.00;70.80
13093;DHT22;6612;49.568;11.000;2022-09-30T09:03:51;14.10;71.40
13093;DHT22;6612;49.568;11.000;2022-09-30T09:06:25;14.30;71.40
13093;DHT22;6612;49.568;11.000;2022-09-30T09:09:19;14.50;71.20
13093;DHT22;6612;49.568;11.000;2022-09-30T09:12:00;14.70;70.60
13093;DHT22;6612;49.568;11.000;2022-09-30T09:14:38;15.00;70.40
13093;DHT22;6612;49.568;11.000;2022-09-30T09:17:17;15.10;70.10
13093;DHT22;6612;49.568;11.000;2022-09-30T09:19:53;15.30;68.80
13093;DHT22;6612;49.568;11.000;2022-09-30T09:22:24;15.30;68.20
13093;DHT22;6612;49.568;11.000;2022-09-30T09:24:53;15.40;68.30
13093;DHT22;6612;49.568;11.000;2022-09-30T09:27:24;15.50;68.30
13093;DHT22;6612;49.568;11.000;2022-09-30T09:29:57;15.50;68.30
13093;DHT22;6612;49.568;11.000;2022-09-30T09:32:27;15.60;68.30
13093;DHT22;6612;49.568;11.000;2022-09-30T09:34:58;15.70;68.40
13093;DHT22;6612;49.568;11.000;2022-09-30T09:37:32;15.70;68.30
13093;DHT22;6612;49.568;11.000;2022-09-30T09:40:26;15.80;67.70
13093;DHT22;6612;49.568;11.000;2022-09-30T09:43:06;15.80;69.00
13093;DHT22;6612;49.568;11.000;2022-09-30T09:45:43;16.10;69.00
13093;DHT22;6612;49.568;11.000;2022-09-30T09:48:14;16.20;69.60
13093;DHT22;6612;49.568;11.000;2022-09-30T09:50:48;16.40;70.50
13093;DHT22;6612;49.568;11.000;2022-09-30T09:53:46;16.60;69.90
13093;DHT22;6612;49.568;11.000;2022-09-30T09:56:17;16.80;67.80
13093;DHT22;6612;49.568;11.000;2022-09-30T09:59:08;17.00;69.30
13093;DHT22;6612;49.568;11.000;2022-09-30T10:01:39;17.10;67.90
13093;DHT22;6612;49.568;11.000;2022-09-30T10:04:11;17.40;70.90
13093;DHT22;6612;49.568;11.000;2022-09-30T10:06:45;17.70;71.00
13093;DHT22;6612;49.568;11.000;2022-09-30T10:09:27;17.90;69.70
13093;DHT22;6612;49.568;11.000;2022-09-30T10:12:26;18.10;69.00
13093;DHT22;6612;49.568;11.000;2022-09-30T10:15:02;18.40;68.40
13093;DHT22;6612;49.568;11.000;2022-09-30T10:17:31;18.70;68.80
13093;DHT22;6612;49.568;11.000;2022-09-30T10:20:00;19.00;69.00
13093;DHT22;6612;49.568;11.000;2022-09-30T10:22:30;19.20;67.40
13093;DHT22;6612;49.568;11.000;2022-09-30T10:25:14;19.30;66.30
13093;DHT22;6612;49.568;11.000;2022-09-30T10:27:50;19.50;63.70
13093;DHT22;6612;49.568;11.000;2022-09-30T10:30:42;19.60;63.70
13093;DHT22;6612;49.568;11.000;2022-09-30T10:33:17;19.60;62.20
13093;DHT22;6612;49.568;11.000;2022-09-30T10:35:53;19.60;62.60
13093;DHT22;6612;49.568;11.000;2022-09-30T10:38:21;19.70;62.10
13093;DHT22;6612;49.568;11.000;2022-09-30T10:40:50;19.70;62.70
13093;DHT22;6612;49.568;11.000;2022-09-30T10:43:20;19.70;62.20
13093;DHT22;6612;49.568;11.000;2022-09-30T10:45:50;19.70;60.90
13093;DHT22;6612;49.568;11.000;2022-09-30T10:48:19;19.70;61.80
13093;DHT22;6612;49.568;11.000;2022-09-30T10:50:49;19.70;61.80
13093;DHT22;6612;49.568;11.000;2022-09-30T10:53:20;19.70;61.70
13093;DHT22;6612;49.568;11.000;2022-09-30T10:55:49;19.60;60.80
13093;DHT22;6612;49.568;11.000;2022-09-30T10:58:25;19.60;61.20
13093;DHT22;6612;49.568;11.000;2022-09-30T11:00:58;19.50;59.90
13093;DHT22;6612;49.568;11.000;2022-09-30T11:03:31;19.40;60.50
13093;DHT22;6612;49.568;11.000;2022-09-30T11:06:00;19.30;60.40
13093;DHT22;6612;49.568;11.000;2022-09-30T11:08:30;19.20;61.10
13093;DHT22;6612;49.568;11.000;2022-09-30T11:11:05;19.20;60.70
13093;DHT22;6612;49.568;11.000;2022-09-30T11:13:38;19.10;60.70
13093;DHT22;6612;49.568;11.000;2022-09-30T11:16:14;19.10;60.80
13093;DHT22;6612;49.568;11.000;2022-09-30T11:18:48;19.00;60.40
13093;DHT22;6612;49.568;11.000;2022-09-30T11:21:18;19.00;60.70
13093;DHT22;6612;49.568;11.000;2022-09-30T11:23:49;19.00;60.90
13093;DHT22;6612;49.568;11.000;2022-09-30T11:26:28;18.90;60.50
13093;DHT22;6612;49.568;11.000;2022-09-30T11:29:26;18.90;60.20
13093;DHT22;6612;49.568;11.000;2022-09-30T11:31:58;18.90;59.90
13093;DHT22;6612;49.568;11.000;2022-09-30T11:34:39;18.80;60.70
13093;DHT22;6612;49.568;11.000;2022-09-30T11:37:16;18.80;59.70
13093;DHT22;6612;49.568;11.000;2022-09-30T11:40:01;18.80;60.10
13093;DHT22;6612;49.568;11.000;2022-09-30T11:42:36;18.80;60.50
13093;DHT22;6612;49.568;11.000;2022-09-30T11:45:20;18.80;60.80
13093;DHT22;6612;49.568;11.000;2022-09-30T11:50:47;18.90;60.00
13093;DHT22;6612;49.568;11.000;2022-09-30T11:53:21;19.00;60.50
13093;DHT22;6612;49.568;11.000;2022-09-30T11:56:01;19.00;60.60
13093;DHT22;6612;49.568;11.000;2022-09-30T11:58:35;19.10;60.30
13093;DHT22;6612;49.568;11.000;2022-09-30T12:01:13;19.10;60.20
13093;DHT22;6612;49.568;11.000;2022-09-30T12:03:47;19.10;59.20
13093;DHT22;6612;49.568;11.000;2022-09-30T12:06:23;19.10;59.60
13093;DHT22;6612;49.568;11.000;2022-09-30T12:08:55;19.20;59.60
13093;DHT22;6612;49.568;11.000;2022-09-30T12:11:31;19.20;59.70
13093;DHT22;6612;49.568;11.000;2022-09-30T12:14:03;19.20;59.70
13093;DHT22;6612;49.568;11.000;2022-09-30T12:16:33;19.20;59.80
13093;DHT22;6612;49.568;11.000;2022-09-30T12:19:09;19.30;60.00
13093;DHT22;6612;49.568;11.000;2022-09-30T12:21:41;19.30;59.60
13093;DHT22;6612;49.568;11.000;2022-09-30T12:24:15;19.30;59.80
13093;DHT22;6612;49.568;11.000;2022-09-30T12:26:45;19.40;59.90
13093;DHT22;6612;49.568;11.000;2022-09-30T12:29:16;19.40;60.00
13093;DHT22;6612;49.568;11.000;2022-09-30T12:35:47;19.50;58.10
13093;DHT22;6612;49.568;11.000;2022-09-30T12:38:35;19.50;57.60
13093;DHT22;6612;49.568;11.000;2022-09-30T12:41:14;19.50;57.70
13093;DHT22;6612;49.568;11.000;2022-09-30T12:44:01;19.50;58.00
13093;DHT22;6612;49.568;11.000;2022-09-30T12:46:52;19.50;57.90
13093;DHT22;6612;49.568;11.000;2022-09-30T12:49:24;19.50;57.10
13093;DHT22;6612;49.568;11.000;2022-09-30T12:51:55;19.50;58.10
13093;DHT22;6612;49.568;11.000;2022-09-30T12:54:25;19.50;58.30
13093;DHT22;6612;49.568;11.000;2022-09-30T12:56:54;19.50;58.40
13093;DHT22;6612;49.568;11.000;2022-09-30T12:59:25;19.50;58.30
13093;DHT22;6612;49.568;11.000;2022-09-30T13:01:55;19.50;58.20
13093;DHT22;6612;49.568;11.000;2022-09-30T13:04:33;19.50;58.20
13093;DHT22;6612;49.568;11.000;2022-09-30T13:07:11;19.50;56.90
13093;DHT22;6612;49.568;11.000;2022-09-30T13:09:54;19.50;56.40
13093;DHT22;6612;49.568;11.000;2022-09-30T13:12:27;19.50;56.40
13093;DHT22;6612;49.568;11.000;2022-09-30T13:18:02;19.50;55.90
13093;DHT22;6612;49.568;11.000;2022-09-30T13:20:54;19.50;56.40
13093;DHT22;6612;49.568;11.000;2022-09-30T13:23:35;19.50;56.90
13093;DHT22;6612;49.568;11.000;2022-09-30T13:26:03;19.50;55.50
13093;DHT22;6612;49.568;11.000;2022-09-30T13:28:40;19.40;56.80
13093;DHT22;6612;49.568;11.000;2022-09-30T13:31:12;19.40;56.20
13093;DHT22;6612;49.568;11.000;2022-09-30T13:33:43;19.40;56.50
13093;DHT22;6612;49.568;11.000;2022-09-30T13:36:24;19.40;57.10
13093;DHT22;6612;49.568;11.000;2022-09-30T13:39:13;19.40;56.00
13093;DHT22;6612;49.568;11.000;2022-09-30T13:41:43;19.40;55.80
13093;DHT22;6612;49.568;11.000;2022-09-30T13:44:15;19.40;57.40
13093;DHT22;6612;49.568;11.000;2022-09-30T13:46:47;19.40;56.50
13093;DHT22;6612;49.568;11.000;2022-09-30T13:49:20;19.40;56.60
13093;DHT22;6612;49.568;11.000;2022-09-30T13:51:49;19.40;56.50
13093;DHT22;6612;49.568;11.000;2022-09-30T13:54:24;19.40;56.60
13093;DHT22;6612;49.568;11.000;2022-09-30T13:56:52;19.30;56.00
13093;DHT22;6612;49.568;11.000;2022-09-30T13:59:41;19.00;56.40
13093;DHT22;6612;49.568;11.000;2022-09-30T14:02:40;19.30;56.00
13093;DHT22;6612;49.568;11.000;2022-09-30T14:05:23;19.30;55.60
13093;DHT22;6612;49.568;11.000;2022-09-30T14:08:06;19.20;55.90
13093;DHT22;6612;49.568;11.000;2022-09-30T14:10:49;19.20;55.60
13093;DHT22;6612;49.568;11.000;2022-09-30T14:13:30;19.20;55.70
13093;DHT22;6612;49.568;11.000;2022-09-30T14:19:07;19.10;55.80
13093;DHT22;6612;49.568;11.000;2022-09-30T14:21:41;19.10;55.40
13093;DHT22;6612;49.568;11.000;2022-09-30T14:24:12;19.10;56.20
13093;DHT22;6612;49.568;11.000;2022-09-30T14:27:00;19.00;56.10
13093;DHT22;6612;49.568;11.000;2022-09-30T14:29:36;19.00;55.50
13093;DHT22;6612;49.568;11.000;2022-09-30T14:32:18;19.00;55.50
13093;DHT22;6612;49.568;11.000;2022-09-30T14:34:45;18.90;54.60
13093;DHT22;6612;49.568;11.000;2022-09-30T14:37:18;18.90;55.70
13093;DHT22;6612;49.568;11.000;2022-09-30T14:39:48;18.90;55.20
13093;DHT22;6612;49.568;11.000;2022-09-30T14:42:24;18.80;55.20
13093;DHT22;6612;49.568;11.000;2022-09-30T14:44:54;18.80;54.40
13093;DHT22;6612;49.568;11.000;2022-09-30T14:47:26;18.70;54.90
13093;DHT22;6612;49.568;11.000;2022-09-30T14:49:53;18.60;54.90
13093;DHT22;6612;49.568;11.000;2022-09-30T14:52:34;18.60;54.80
13093;DHT22;6612;49.568;11.000;2022-09-30T14:55:15;18.50;53.70
13093;DHT22;6612;49.568;11.000;2022-09-30T14:57:43;18.40;54.60
13093;DHT22;6612;49.568;11.000;2022-09-30T15:00:29;18.30;54.80
13093;DHT22;6612;49.568;11.000;2022-09-30T15:02:58;18.10;54.50
13093;DHT22;6612;49.568;11.000;2022-09-30T15:05:25;18.20;54.70
13093;DHT22;6612;49.568;11.000;2022-09-30T15:07:53;18.10;54.80
13093;DHT22;6612;49.568;11.000;2022-09-30T15:10:23;18.00;54.80
13093;DHT22;6612;49.568;11.000;2022-09-30T15:12:51;18.00;54.70
13093;DHT22;6612;49.568;11.000;2022-09-30T15:15:32;17.90;54.90
13093;DHT22;6612;49.568;11.000;2022-09-30T15:21:09;17.80;54.10
13093;DHT22;6612;49.568;11.000;2022-09-30T15:23:38;17.70;54.50
13093;DHT22;6612;49.568;11.000;2022-09-30T15:26:10;17.70;55.20
13093;DHT22;6612;49.568;11.000;2022-09-30T15:28:37;17.60;55.00
13093;DHT22;6612;49.568;11.000;2022-09-30T15:31:05;17.60;55.30
13093;DHT22;6612;49.568;11.000;2022-09-30T15:33:33;17.50;55.30
13093;DHT22;6612;49.568;11.000;2022-09-30T15:36:03;17.40;55.10
13093;DHT22;6612;49.568;11.000;2022-09-30T15:38:32;17.40;55.00
13093;DHT22;6612;49.568;11.000;2022-09-30T15:41:02;17.30;55.00
13093;DHT22;6612;49.568;11.000;2022-09-30T15:43:36;17.30;55.00
13093;DHT22;6612;49.568;11.000;2022-09-30T15:46:27;17.30;54.70
13093;DHT22;6612;49.568;11.000;2022-09-30T15:48:58;17.20;53.80
13093;DHT22;6612;49.568;11.000;2022-09-30T15:51:37;17.10;54.90
13093;DHT22;6612;49.568;11.000;2022-09-30T15:54:27;17.10;54.10
13093;DHT22;6612;49.568;11.000;2022-09-30T15:56:57;17.00;53.90
13093;DHT22;6612;49.568;11.000;2022-09-30T15:59:57;17.00;55.00
13093;DHT22;6612;49.568;11.000;2022-09-30T16:02:25;16.90;53.40
13093;DHT22;6612;49.568;11.000;2022-09-30T16:04:53;16.90;55.00
13093;DHT22;6612;49.568;11.000;2022-09-30T16:07:21;16.80;54.90
13093;DHT22;6612;49.568;11.000;2022-09-30T16:09:51;16.70;54.70
13093;DHT22;6612;49.568;11.000;2022-09-30T16:12:21;16.70;54.80
13093;DHT22;6612;49.568;11.000;2022-09-30T16:14:53;16.60;54.60
13093;DHT22;6612;49.568;11.000;2022-09-30T16:17:22;16.60;55.10
13093;DHT22;6612;49.568;11.000;2022-09-30T16:19:51;16.50;54.40
13093;DHT22;6612;49.568;11.000;2022-09-30T16:22:49;16.50;54.60
13093;DHT22;6612;49.568;11.000;2022-09-30T16:25:22;16.40;53.50
13093;DHT22;6612;49.568;11.000;2022-09-30T16:27:55;16.40;54.40